createdAt,value
2023-04-20T00:00:39.067Z,4.90
2023-04-20T00:03:41.189Z,4.80
2023-04-20T00:06:44.066Z,4.80
2023-04-20T00:09:45.911Z,4.80
2023-04-20T00:12:47.578Z,4.80
2023-04-20T00:15:49.277Z,4.70
2023-04-20T00:18:51.538Z,4.70
2023-04-20T00:21:53.210Z,4.70
2023-04-20T00:24:54.934Z,4.60
2023-04-20T00:27:57.122Z,4.60
2023-04-20T00:30:59.025Z,4.60
2023-04-20T00:34:00.685Z,4.60
2023-04-20T00:37:02.447Z,4.60
2023-04-20T00:40:04.700Z,4.60
2023-04-20T00:43:11.334Z,4.60
2023-04-20T00:46:13.035Z,4.60
2023-04-20T00:49:14.853Z,4.60
2023-04-20T00:52:16.800Z,4.70
2023-04-20T00:55:20.788Z,4.70
2023-04-20T00:58:22.818Z,4.60
2023-04-20T01:01:24.907Z,4.70
2023-04-20T01:04:26.814Z,4.70
2023-04-20T01:07:30.041Z,4.70
2023-04-20T01:10:31.764Z,4.70
2023-04-20T01:13:33.424Z,4.60
2023-04-20T01:16:36.762Z,4.60
2023-04-20T01:19:38.689Z,4.60
2023-04-20T01:22:58.640Z,4.60
2023-04-20T01:26:00.322Z,4.60
2023-04-20T01:29:02.017Z,4.60
2023-04-20T01:32:04.217Z,4.60
2023-04-20T01:35:06.598Z,4.50
2023-04-20T01:38:08.305Z,4.50
2023-04-20T01:41:10.205Z,4.50
2023-04-20T01:44:11.886Z,4.50
2023-04-20T01:47:14.308Z,4.50
2023-04-20T01:50:15.988Z,4.50
2023-04-20T01:53:18.307Z,4.50
2023-04-20T01:56:19.976Z,4.50
2023-04-20T01:59:21.662Z,4.50
2023-04-20T02:02:23.402Z,4.40
2023-04-20T02:05:25.320Z,4.40
2023-04-20T02:08:26.982Z,4.40
2023-04-20T02:11:28.835Z,4.40
2023-04-20T02:14:30.795Z,4.40
2023-04-20T02:17:32.918Z,4.40
2023-04-20T02:20:34.899Z,4.40
2023-04-20T02:23:36.782Z,4.40
2023-04-20T02:26:38.423Z,4.50
2023-04-20T02:29:40.424Z,4.50
2023-04-20T02:32:42.201Z,4.50
2023-04-20T02:35:43.902Z,4.50
2023-04-20T02:38:45.577Z,4.50
2023-04-20T02:41:47.276Z,4.40
2023-04-20T02:44:49.042Z,4.50
2023-04-20T02:47:50.983Z,4.40
2023-04-20T02:50:56.152Z,4.40
2023-04-20T02:53:57.882Z,4.40
2023-04-20T02:56:59.562Z,4.40
2023-04-20T03:00:01.496Z,4.50
2023-04-20T03:03:03.690Z,4.40
2023-04-20T03:06:16.676Z,4.40
2023-04-20T03:09:18.982Z,4.50
2023-04-20T03:12:22.328Z,4.50
2023-04-20T03:15:24.497Z,4.50
2023-04-20T03:18:26.223Z,4.50
2023-04-20T03:21:27.908Z,4.40
2023-04-20T03:24:29.590Z,4.40
2023-04-20T03:27:31.250Z,4.40
2023-04-20T03:30:33.007Z,4.40
2023-04-20T03:33:34.738Z,4.50
2023-04-20T03:36:36.704Z,4.40
2023-04-20T03:39:38.468Z,4.50
2023-04-20T03:42:40.907Z,4.50
2023-04-20T03:45:42.580Z,4.40
2023-04-20T03:48:44.226Z,4.50
2023-04-20T03:51:45.973Z,4.40
2023-04-20T03:54:47.726Z,4.40
2023-04-20T03:57:49.365Z,4.40
2023-04-20T04:00:51.035Z,4.50
2023-04-20T04:03:52.942Z,4.40
2023-04-20T04:06:54.885Z,4.40
2023-04-20T04:09:56.607Z,4.40
2023-04-20T04:12:58.389Z,4.50
2023-04-20T04:16:00.144Z,4.50
2023-04-20T04:19:01.846Z,4.40
2023-04-20T04:22:03.609Z,4.40
2023-04-20T04:25:05.864Z,4.50
2023-04-20T04:28:07.592Z,4.40
2023-04-20T04:31:09.875Z,4.40
2023-04-20T04:34:12.180Z,4.40
2023-04-20T04:37:14.460Z,4.40
2023-04-20T04:40:16.253Z,4.40
2023-04-20T04:43:19.565Z,4.30
2023-04-20T04:46:21.613Z,4.40
2023-04-20T04:49:24.903Z,4.30
2023-04-20T04:52:27.545Z,4.40
2023-04-20T04:55:29.310Z,4.40
2023-04-20T04:58:31.021Z,4.40
2023-04-20T05:01:32.839Z,4.30
2023-04-20T05:04:34.673Z,4.30
2023-04-20T05:07:38.212Z,4.30
2023-04-20T05:10:39.946Z,4.30
2023-04-20T05:13:41.656Z,4.30
2023-04-20T05:16:43.479Z,4.30
2023-04-20T05:19:45.624Z,4.40
2023-04-20T05:23:13.088Z,4.30
2023-04-20T05:26:14.785Z,4.30
2023-04-20T05:29:17.176Z,4.30
2023-04-20T05:32:19.114Z,4.30
2023-04-20T05:35:22.624Z,4.30
2023-04-20T05:38:25.449Z,4.30
2023-04-20T05:41:27.685Z,4.30
2023-04-20T05:44:29.420Z,4.20
2023-04-20T05:47:31.178Z,4.20
2023-04-20T05:50:33.049Z,4.20
2023-04-20T05:53:34.725Z,4.20
2023-04-20T05:56:36.431Z,4.20
2023-04-20T05:59:38.302Z,4.20
2023-04-20T06:02:40.856Z,4.20
2023-04-20T06:14:28.509Z,4.30
2023-04-20T06:17:30.275Z,4.30
2023-04-20T06:20:32.035Z,4.40
2023-04-20T06:23:33.843Z,4.30
2023-04-20T06:26:35.607Z,4.40
2023-04-20T06:30:06.076Z,4.40
2023-04-20T06:33:09.135Z,4.40
2023-04-20T06:36:12.055Z,4.40
2023-04-20T06:39:16.243Z,4.30
2023-04-20T06:42:18.610Z,4.30
2023-04-20T06:45:20.423Z,4.40
2023-04-20T06:48:30.864Z,4.30
2023-04-20T06:51:34.637Z,4.30
2023-04-20T06:54:36.294Z,4.30
2023-04-20T06:57:43.720Z,4.30
2023-04-20T07:00:45.589Z,4.40
2023-04-20T07:03:47.429Z,4.30
2023-04-20T07:06:51.131Z,4.40
2023-04-20T07:09:54.209Z,4.50
2023-04-20T07:12:55.894Z,4.40
2023-04-20T07:15:58.196Z,4.50
2023-04-20T07:18:59.875Z,4.60
2023-04-20T07:22:01.533Z,4.60
2023-04-20T07:25:05.362Z,4.60
2023-04-20T07:28:07.180Z,4.60
2023-04-20T07:31:08.878Z,4.70
2023-04-20T07:34:11.321Z,4.80
2023-04-20T07:37:12.978Z,4.90
2023-04-20T07:40:14.736Z,4.90
2023-04-20T07:43:16.374Z,4.90
2023-04-20T07:46:22.594Z,4.90
2023-04-20T07:49:25.459Z,4.90
2023-04-20T07:52:27.162Z,4.80
2023-04-20T07:55:28.906Z,4.80
2023-04-20T07:58:30.668Z,4.90
2023-04-20T08:01:32.549Z,4.90
2023-04-20T08:04:37.037Z,4.90
2023-04-20T08:07:39.131Z,5.00
2023-04-20T08:10:41.130Z,5.00
2023-04-20T08:13:42.778Z,5.10
2023-04-20T08:16:44.582Z,5.00
2023-04-20T08:19:46.596Z,5.00
2023-04-20T08:22:49.375Z,5.00
2023-04-20T08:25:51.685Z,5.10
2023-04-20T08:28:53.686Z,5.30
2023-04-20T08:31:55.777Z,5.30
2023-04-20T08:34:57.624Z,5.30
2023-04-20T08:37:59.320Z,5.30
2023-04-20T08:41:01.351Z,5.20
2023-04-20T08:44:03.990Z,5.20
2023-04-20T08:47:05.776Z,5.20
2023-04-20T08:50:09.094Z,5.20
2023-04-20T08:53:10.903Z,5.20
2023-04-20T08:56:12.597Z,5.10
2023-04-20T08:59:16.643Z,5.20
2023-04-20T09:02:18.406Z,5.30
2023-04-20T09:05:30.611Z,5.40
2023-04-20T09:08:41.024Z,5.40
2023-04-20T09:11:43.036Z,5.40
2023-04-20T09:14:48.451Z,5.50
2023-04-20T09:17:50.275Z,5.70
2023-04-20T09:20:51.987Z,6.50
2023-04-20T09:24:06.619Z,6.90
2023-04-20T09:27:19.382Z,6.90
2023-04-20T09:30:21.215Z,6.70
2023-04-20T09:33:28.795Z,6.60
2023-04-20T09:36:54.143Z,6.40
2023-04-20T09:40:00.229Z,6.40
2023-04-20T09:43:15.314Z,6.30
2023-04-20T09:46:17.267Z,6.40
2023-04-20T09:49:19.451Z,6.60
2023-04-20T09:52:22.664Z,6.90
2023-04-20T09:55:26.581Z,7.00
2023-04-20T09:58:32.258Z,7.20
2023-04-20T10:01:36.453Z,7.10
2023-04-20T10:04:38.573Z,7.00
2023-04-20T10:07:40.601Z,6.80
2023-04-20T10:10:47.331Z,6.70
2023-04-20T10:13:49.052Z,6.60
2023-04-20T10:17:01.060Z,6.50
2023-04-20T10:20:04.518Z,6.70
2023-04-20T10:23:11.253Z,6.90
2023-04-20T10:26:13.525Z,7.20
2023-04-20T10:29:27.547Z,7.20
2023-04-20T10:32:29.477Z,7.20
2023-04-20T10:35:46.966Z,7.00
2023-04-20T10:38:52.235Z,6.80
2023-04-20T10:41:58.346Z,6.70
2023-04-20T10:45:00.294Z,6.90
2023-04-20T10:48:09.607Z,7.10
2023-04-20T10:51:11.730Z,7.10
2023-04-20T10:54:13.412Z,7.10
2023-04-20T10:57:16.597Z,7.20
2023-04-20T11:00:27.978Z,7.20
2023-04-20T11:03:32.262Z,7.40
2023-04-20T11:06:35.126Z,7.40
2023-04-20T11:09:38.352Z,7.10
2023-04-20T11:12:49.706Z,7.10
2023-04-20T11:15:52.375Z,7.30
2023-04-20T11:18:55.742Z,7.60
2023-04-20T11:21:57.876Z,7.70
2023-04-20T11:25:10.914Z,7.80
2023-04-20T11:28:12.772Z,7.80
2023-04-20T11:31:20.998Z,8.00
2023-04-20T11:34:23.827Z,8.10
2023-04-20T11:37:25.579Z,8.10
2023-04-20T11:40:28.508Z,8.20
2023-04-20T11:43:35.688Z,8.40
2023-04-20T11:46:37.741Z,8.40
2023-04-20T11:49:39.702Z,8.60
2023-04-20T11:52:41.383Z,8.60
2023-04-20T11:55:43.084Z,8.70
2023-04-20T11:58:44.737Z,8.70
2023-04-20T12:01:47.554Z,8.60
2023-04-20T12:04:49.373Z,8.60
2023-04-20T12:07:51.185Z,8.80
2023-04-20T12:10:52.863Z,8.70
2023-04-20T12:13:54.596Z,8.60
2023-04-20T12:16:58.102Z,8.90
2023-04-20T12:20:00.604Z,8.80
2023-04-20T12:23:02.481Z,8.70
2023-04-20T12:26:04.847Z,8.70
2023-04-20T12:29:07.522Z,8.80
2023-04-20T12:32:35.687Z,8.80
2023-04-20T12:35:37.426Z,8.80
2023-04-20T12:38:39.141Z,8.80
2023-04-20T12:41:41.853Z,8.80
2023-04-20T12:44:43.568Z,8.90
2023-04-20T12:47:45.367Z,8.90
2023-04-20T12:50:47.152Z,8.80
2023-04-20T12:53:48.848Z,8.80
2023-04-20T12:56:50.611Z,8.70
2023-04-20T12:59:55.416Z,8.80
2023-04-20T13:02:57.480Z,9.00
2023-04-20T13:06:00.326Z,9.00
2023-04-20T13:09:04.063Z,8.90
2023-04-20T13:12:06.006Z,8.90
2023-04-20T13:15:09.445Z,9.00
2023-04-20T13:18:11.283Z,8.90
2023-04-20T13:21:12.998Z,8.90
2023-04-20T13:24:14.669Z,8.90
2023-04-20T13:27:16.367Z,8.80
2023-04-20T13:30:18.265Z,8.80
2023-04-20T13:34:18.540Z,8.60
2023-04-20T13:37:20.475Z,8.60
2023-04-20T13:40:22.725Z,8.60
2023-04-20T13:43:24.943Z,8.70
2023-04-20T13:46:26.845Z,8.70
2023-04-20T13:49:28.582Z,8.70
2023-04-20T13:52:30.478Z,8.60
2023-04-20T13:55:32.261Z,8.50
2023-04-20T13:58:33.970Z,8.50
2023-04-20T14:01:35.940Z,8.40
2023-04-20T14:04:37.701Z,8.40
2023-04-20T14:07:39.889Z,8.50
2023-04-20T14:10:42.335Z,8.50
2023-04-20T14:13:44.332Z,8.50
2023-04-20T14:16:47.546Z,8.50
2023-04-20T14:20:02.486Z,8.30
2023-04-20T14:23:04.341Z,8.40
2023-04-20T14:26:06.134Z,8.40
2023-04-20T14:29:07.920Z,8.60
2023-04-20T14:32:09.672Z,8.60
2023-04-20T14:35:11.386Z,8.60
2023-04-20T14:38:13.149Z,8.60
2023-04-20T14:41:16.571Z,8.60
2023-04-20T14:44:18.583Z,8.50
2023-04-20T14:47:20.743Z,8.50
2023-04-20T14:50:27.206Z,8.40
2023-04-20T14:53:29.286Z,8.50
2023-04-20T14:56:32.001Z,8.50
2023-04-20T14:59:34.009Z,8.50
2023-04-20T15:02:36.122Z,8.50
2023-04-20T15:05:38.503Z,8.40
2023-04-20T15:08:40.335Z,8.40
2023-04-20T15:11:42.034Z,8.30
2023-04-20T15:14:43.706Z,8.30
2023-04-20T15:17:46.719Z,8.10
2023-04-20T15:20:50.235Z,8.10
2023-04-20T15:23:52.001Z,8.10
2023-04-20T15:26:53.811Z,8.10
2023-04-20T15:29:57.925Z,8.10
2023-04-20T15:33:04.755Z,8.10
2023-04-20T15:36:07.750Z,8.20
2023-04-20T15:39:09.434Z,8.30
2023-04-20T15:42:11.242Z,8.30
2023-04-20T15:45:13.472Z,8.30
2023-04-20T15:48:15.184Z,8.20
2023-04-20T15:51:30.022Z,8.30
2023-04-20T15:54:31.742Z,8.20
2023-04-20T15:57:33.390Z,8.20
2023-04-20T16:00:35.060Z,8.20
2023-04-20T16:03:37.062Z,8.20
2023-04-20T16:06:40.222Z,8.20
2023-04-20T16:09:41.956Z,8.20
2023-04-20T16:12:43.627Z,8.20
2023-04-20T16:15:45.500Z,8.10
2023-04-20T16:18:48.146Z,8.00
2023-04-20T16:21:49.789Z,7.90
2023-04-20T16:24:51.444Z,7.90
2023-04-20T16:27:53.150Z,7.90
2023-04-20T16:30:54.959Z,7.90
2023-04-20T16:33:58.544Z,7.90
2023-04-20T16:37:00.216Z,7.90
2023-04-20T16:40:02.363Z,7.90
2023-04-20T16:43:04.070Z,7.80
2023-04-20T16:46:06.088Z,7.70
2023-04-20T16:49:16.262Z,7.60
2023-04-20T16:52:18.054Z,7.60
2023-04-20T16:55:19.918Z,7.60
2023-04-20T16:58:21.758Z,7.50
2023-04-20T17:01:23.528Z,7.40
2023-04-20T17:04:25.429Z,7.40
2023-04-20T17:07:28.419Z,7.40
2023-04-20T17:10:30.089Z,7.30
2023-04-20T17:13:33.251Z,7.20
2023-04-20T17:16:34.934Z,7.20
2023-04-20T17:19:51.068Z,7.10
2023-04-20T17:22:52.783Z,7.10
2023-04-20T17:25:54.679Z,7.10
2023-04-20T17:28:56.439Z,7.10
2023-04-20T17:31:58.150Z,7.10
2023-04-20T17:34:59.922Z,7.10
2023-04-20T17:38:01.690Z,7.10
2023-04-20T17:41:04.755Z,7.10
2023-04-20T17:44:06.459Z,7.00
2023-04-20T17:47:09.582Z,7.10
2023-04-20T17:50:13.268Z,7.10
2023-04-20T17:53:14.928Z,7.10
2023-04-20T17:56:16.651Z,7.00
2023-04-20T17:59:18.342Z,7.10
2023-04-20T18:02:20.413Z,7.10
2023-04-20T18:05:22.316Z,7.10
2023-04-20T18:08:23.986Z,7.10
2023-04-20T18:11:25.711Z,7.10
2023-04-20T18:14:27.466Z,7.10
2023-04-20T18:17:29.196Z,7.10
2023-04-20T18:20:32.352Z,7.10
2023-04-20T18:23:34.359Z,7.10
2023-04-20T18:26:36.544Z,7.20
2023-04-20T18:29:47.455Z,7.20
2023-04-20T18:32:49.205Z,7.20
2023-04-20T18:35:50.934Z,7.20
2023-04-20T18:38:53.962Z,7.10
2023-04-20T18:42:38.404Z,7.20
2023-04-20T18:45:40.212Z,7.20
2023-04-20T18:49:13.036Z,7.20
2023-04-20T18:52:14.922Z,7.20
2023-04-20T18:55:16.626Z,7.20
2023-04-20T18:58:18.270Z,7.30
2023-04-20T19:01:20.162Z,7.20
2023-04-20T19:04:22.292Z,7.20
2023-04-20T19:07:28.453Z,7.20
2023-04-20T19:10:31.919Z,7.20
2023-04-20T19:13:33.567Z,7.20
2023-04-20T19:16:35.551Z,7.20
2023-04-20T19:19:37.366Z,7.20
2023-04-20T19:22:39.110Z,7.30
2023-04-20T19:25:40.953Z,7.40
2023-04-20T19:28:42.672Z,7.30
2023-04-20T19:31:44.726Z,7.40
2023-04-20T19:34:46.758Z,7.40
2023-04-20T19:37:48.467Z,7.40
2023-04-20T19:40:51.440Z,7.40
2023-04-20T19:43:53.479Z,7.50
2023-04-20T19:46:55.465Z,7.50
2023-04-20T19:49:57.401Z,7.60
2023-04-20T19:52:59.290Z,7.60
2023-04-20T19:56:01.035Z,7.70
2023-04-20T19:59:02.767Z,7.60
2023-04-20T20:02:04.714Z,7.70
2023-04-20T20:05:07.578Z,7.70
2023-04-20T20:08:09.772Z,7.70
2023-04-20T20:11:11.510Z,7.70
2023-04-20T20:14:13.248Z,7.60
2023-04-20T20:17:15.135Z,7.70
2023-04-20T20:20:16.825Z,7.80
2023-04-20T20:23:41.391Z,7.80
2023-04-20T20:26:43.155Z,7.80
2023-04-20T20:29:44.807Z,7.90
2023-04-20T20:32:46.680Z,7.80
2023-04-20T20:35:48.615Z,7.90
2023-04-20T20:38:50.731Z,7.90
2023-04-20T20:41:52.467Z,7.90
2023-04-20T20:44:54.375Z,7.90
2023-04-20T20:47:56.310Z,7.90
2023-04-20T20:50:58.066Z,7.90
2023-04-20T20:53:59.719Z,7.90
2023-04-20T20:57:01.751Z,7.90
2023-04-20T21:00:09.777Z,7.90
2023-04-20T21:03:15.963Z,7.90
2023-04-20T21:06:18.781Z,8.00
2023-04-20T21:09:20.872Z,8.00
2023-04-20T21:12:22.840Z,8.10
2023-04-20T21:15:24.556Z,8.20
2023-04-20T21:18:26.215Z,8.20
2023-04-20T21:21:27.910Z,8.30
2023-04-20T21:24:29.575Z,8.40
2023-04-20T21:27:31.476Z,8.40
2023-04-20T21:30:33.244Z,8.50
2023-04-20T21:33:35.788Z,8.70
2023-04-20T21:36:37.596Z,8.70
2023-04-20T21:39:39.260Z,8.90
2023-04-20T21:42:40.910Z,8.90
2023-04-20T21:45:42.581Z,9.00
2023-04-20T21:48:44.263Z,9.00
2023-04-20T21:51:45.957Z,9.10
2023-04-20T21:54:47.625Z,9.10
2023-04-20T21:57:49.316Z,9.10
2023-04-20T22:00:51.077Z,9.10
2023-04-20T22:03:52.931Z,9.00
2023-04-20T22:06:55.507Z,9.00
2023-04-20T22:09:57.165Z,9.00
2023-04-20T22:12:58.906Z,9.00
2023-04-20T22:16:00.742Z,9.00
2023-04-20T22:19:03.003Z,9.00
2023-04-20T22:22:04.776Z,9.00
2023-04-20T22:25:08.213Z,8.90
2023-04-20T22:28:11.206Z,9.00
2023-04-20T22:31:12.904Z,9.00
2023-04-20T22:34:14.644Z,9.00
2023-04-20T22:37:16.560Z,9.00
2023-04-20T22:40:18.259Z,9.00
2023-04-20T22:43:21.131Z,9.00
2023-04-20T22:46:22.875Z,9.00
2023-04-20T22:49:24.568Z,8.90
2023-04-20T22:52:26.217Z,8.90
2023-04-20T22:55:27.947Z,8.80
2023-04-20T22:58:29.753Z,8.80
2023-04-20T23:01:31.573Z,8.70
2023-04-20T23:04:33.487Z,8.80
2023-04-20T23:07:35.768Z,8.80
2023-04-20T23:10:39.014Z,8.80
2023-04-20T23:13:41.225Z,8.90
2023-04-20T23:16:42.959Z,8.90
2023-04-20T23:19:44.702Z,8.80
2023-04-20T23:22:46.477Z,8.80
2023-04-20T23:25:48.201Z,8.90
2023-04-20T23:28:53.780Z,8.90
2023-04-20T23:31:55.618Z,8.90
2023-04-20T23:34:57.400Z,8.90
2023-04-20T23:37:59.171Z,8.90
2023-04-20T23:41:00.936Z,8.90
2023-04-20T23:44:02.642Z,8.90
2023-04-20T23:47:04.322Z,8.90
2023-04-20T23:50:06.776Z,8.80
2023-04-20T23:53:10.147Z,8.80
2023-04-20T23:56:11.924Z,8.80
2023-04-20T23:59:40.421Z,8.80
